createdAt,value
2023-05-24T00:00:54.564Z,17.27
2023-05-24T00:03:55.719Z,17.14
2023-05-24T00:06:56.580Z,16.98
2023-05-24T00:09:57.603Z,16.79
2023-05-24T00:12:58.606Z,16.58
2023-05-24T00:15:59.601Z,16.44
2023-05-24T00:19:01.624Z,16.34
2023-05-24T00:22:02.612Z,16.31
2023-05-24T00:25:03.623Z,16.23
2023-05-24T00:28:04.616Z,16.21
2023-05-24T00:31:05.633Z,16.78
2023-05-24T00:34:06.638Z,17.20
2023-05-24T00:37:07.674Z,17.24
2023-05-24T00:40:09.664Z,17.14
2023-05-24T00:43:10.677Z,16.85
2023-05-24T00:46:26.766Z,16.75
2023-05-24T00:49:27.679Z,16.58
2023-05-24T00:52:28.684Z,16.40
2023-05-24T00:55:29.682Z,16.20
2023-05-24T00:58:33.684Z,16.10
2023-05-24T01:01:37.742Z,16.03
2023-05-24T01:04:39.702Z,16.48
2023-05-24T01:07:50.715Z,16.99
2023-05-24T01:11:17.711Z,17.05
2023-05-24T01:14:52.848Z,16.87
2023-05-24T01:18:09.893Z,16.58
2023-05-24T01:21:36.815Z,16.39
2023-05-24T01:24:43.901Z,16.18
2023-05-24T01:27:49.743Z,16.01
2023-05-24T01:30:50.754Z,15.87
2023-05-24T01:33:55.770Z,16.29
2023-05-24T01:36:56.758Z,16.68
2023-05-24T01:39:57.771Z,16.69
2023-05-24T01:43:09.767Z,16.56
2023-05-24T01:46:35.831Z,16.39
2023-05-24T01:49:44.788Z,16.19
2023-05-24T01:52:48.770Z,16.04
2023-05-24T01:55:51.809Z,15.96
2023-05-24T01:58:54.801Z,15.93
2023-05-24T02:01:56.959Z,15.88
2023-05-24T02:04:57.809Z,15.84
2023-05-24T02:08:01.956Z,15.84
2023-05-24T02:11:02.919Z,16.39
2023-05-24T02:14:03.847Z,16.92
2023-05-24T02:17:05.966Z,17.10
2023-05-24T02:20:06.832Z,17.11
2023-05-24T02:23:00.941Z,16.95
2023-05-24T02:26:01.855Z,16.76
2023-05-24T02:29:02.871Z,16.56
2023-05-24T02:32:03.857Z,16.40
2023-05-24T02:35:05.886Z,16.28
2023-05-24T02:38:06.890Z,16.68
2023-05-24T02:41:07.899Z,17.13
2023-05-24T02:44:08.893Z,17.20
2023-05-24T02:47:09.904Z,17.03
2023-05-24T02:50:10.900Z,16.87
2023-05-24T02:53:12.045Z,16.74
2023-05-24T02:56:14.914Z,16.88
2023-05-24T02:59:15.929Z,17.03
2023-05-24T03:02:16.947Z,17.36
2023-05-24T03:05:17.932Z,18.19
2023-05-24T03:08:19.004Z,19.60
2023-05-24T03:11:20.931Z,20.58
2023-05-24T03:14:23.944Z,20.92
2023-05-24T03:17:24.968Z,20.76
2023-05-24T03:20:28.107Z,20.83
2023-05-24T03:23:28.958Z,21.29
2023-05-24T03:26:29.972Z,21.78
2023-05-24T03:29:30.990Z,22.50
2023-05-24T03:32:32.006Z,23.20
2023-05-24T03:35:32.979Z,23.99
2023-05-24T03:38:34.007Z,24.79
2023-05-24T03:41:35.019Z,25.75
2023-05-24T03:44:37.999Z,26.57
2023-05-24T03:47:39.056Z,27.42
2023-05-24T03:50:40.228Z,28.29
2023-05-24T03:53:41.022Z,29.05
2023-05-24T03:56:42.048Z,29.55
2023-05-24T03:59:43.033Z,29.91
2023-05-24T04:02:47.093Z,30.23
2023-05-24T04:05:49.107Z,30.55
2023-05-24T04:08:50.055Z,30.85
2023-05-24T04:11:51.083Z,31.28
2023-05-24T04:14:52.101Z,31.89
2023-05-24T04:17:53.122Z,32.45
2023-05-24T04:20:54.084Z,32.82
2023-05-24T04:23:48.171Z,33.11
2023-05-24T04:26:49.139Z,33.49
2023-05-24T04:29:56.057Z,34.06
2023-05-24T04:32:57.138Z,34.62
2023-05-24T04:35:59.178Z,35.28
2023-05-24T04:39:04.139Z,35.73
2023-05-24T04:42:05.208Z,36.23
2023-05-24T04:45:06.143Z,36.80
2023-05-24T04:48:07.234Z,37.24
2023-05-24T04:51:08.178Z,37.79
2023-05-24T05:12:01.264Z,40.16
2023-05-24T05:15:02.305Z,40.73
2023-05-24T05:18:04.293Z,41.04
2023-05-24T05:21:05.268Z,41.43
2023-05-24T05:24:06.274Z,41.80
2023-05-24T05:27:07.291Z,41.90
2023-05-24T05:30:08.276Z,41.65
2023-05-24T05:33:09.553Z,41.39
2023-05-24T05:36:10.324Z,41.69
2023-05-24T05:39:11.314Z,42.03
2023-05-24T05:42:12.309Z,42.27
2023-05-24T05:45:13.339Z,42.58
2023-05-24T05:48:14.322Z,42.41
2023-05-24T05:51:15.329Z,42.29
2023-05-24T05:54:21.352Z,42.54
2023-05-24T05:57:23.330Z,42.60
2023-05-24T06:00:24.363Z,42.31
2023-05-24T06:03:25.550Z,42.19
2023-05-24T06:06:26.327Z,42.15
2023-05-24T06:09:27.359Z,42.04
2023-05-24T06:12:28.376Z,42.10
2023-05-24T06:15:29.413Z,42.67
2023-05-24T06:18:30.480Z,43.02
2023-05-24T06:21:31.391Z,43.23
2023-05-24T06:24:35.406Z,43.32
2023-05-24T06:27:36.409Z,43.56
2023-05-24T06:30:37.475Z,43.84
2023-05-24T06:33:42.592Z,43.94
2023-05-24T06:36:49.493Z,43.76
2023-05-24T06:39:50.510Z,43.50
2023-05-24T06:42:51.439Z,43.40
2023-05-24T06:45:52.452Z,43.58
2023-05-24T06:48:53.610Z,43.76
2023-05-24T06:51:54.429Z,43.85
2023-05-24T06:54:55.458Z,43.20
2023-05-24T06:57:56.479Z,42.50
2023-05-24T07:00:57.539Z,41.29
2023-05-24T07:03:58.491Z,38.87
2023-05-24T07:06:59.509Z,36.62
2023-05-24T07:10:01.888Z,34.78
2023-05-24T07:13:02.511Z,33.30
2023-05-24T07:16:03.523Z,32.05
2023-05-24T07:19:05.527Z,30.98
2023-05-24T07:22:06.519Z,30.17
2023-05-24T07:25:07.534Z,29.69
2023-05-24T07:28:08.520Z,28.96
2023-05-24T07:31:09.521Z,28.43
2023-05-24T07:34:10.563Z,27.93
2023-05-24T07:37:11.590Z,27.63
2023-05-24T07:40:12.589Z,27.29
2023-05-24T07:43:13.578Z,27.07
2023-05-24T07:46:07.573Z,26.84
2023-05-24T07:48:55.630Z,26.70
2023-05-24T07:51:56.589Z,26.51
2023-05-24T07:54:57.610Z,26.42
2023-05-24T07:57:51.762Z,26.35
2023-05-24T08:00:52.634Z,26.15
2023-05-24T08:03:53.778Z,26.11
2023-05-24T08:06:54.644Z,26.07
2023-05-24T08:09:55.681Z,26.05
2023-05-24T08:12:58.627Z,26.09
2023-05-24T08:15:59.652Z,26.15
2023-05-24T08:19:00.678Z,26.30
2023-05-24T08:22:02.663Z,26.45
2023-05-24T08:25:03.637Z,26.54
2023-05-24T08:28:04.724Z,26.56
2023-05-24T08:31:05.665Z,26.43
2023-05-24T08:34:06.664Z,26.34
2023-05-24T08:37:07.675Z,26.13
2023-05-24T08:40:08.704Z,25.96
2023-05-24T08:43:18.692Z,26.02
2023-05-24T08:46:20.741Z,26.14
2023-05-24T08:49:22.681Z,26.16
2023-05-24T08:52:24.711Z,26.13
2023-05-24T08:55:25.694Z,26.11
2023-05-24T08:58:26.757Z,26.17
2023-05-24T09:01:31.064Z,26.25
2023-05-24T09:04:33.725Z,26.41
2023-05-24T09:07:36.744Z,26.50
2023-05-24T09:10:52.780Z,26.49
2023-05-24T09:13:57.772Z,26.58
2023-05-24T09:16:58.765Z,26.62
2023-05-24T09:19:59.785Z,26.77
2023-05-24T09:23:05.768Z,26.94
2023-05-24T09:26:06.814Z,27.20
2023-05-24T09:29:08.784Z,27.47
2023-05-24T09:32:10.784Z,27.60
2023-05-24T09:35:13.810Z,27.44
2023-05-24T09:38:14.805Z,27.69
2023-05-24T09:41:17.769Z,27.78
2023-05-24T09:44:19.805Z,27.88
2023-05-24T09:47:20.877Z,28.05
2023-05-24T09:50:29.821Z,28.15
2023-05-24T09:53:31.814Z,28.17
2023-05-24T09:56:32.852Z,28.26
2023-05-24T09:59:33.826Z,28.22
2023-05-24T10:02:45.248Z,28.21
2023-05-24T10:05:56.836Z,28.23
2023-05-24T10:08:57.874Z,28.26
2023-05-24T10:11:58.856Z,28.27
2023-05-24T10:14:59.865Z,28.32
2023-05-24T10:18:00.893Z,28.34
2023-05-24T10:21:03.973Z,28.27
2023-05-24T10:24:10.881Z,28.29
2023-05-24T10:27:14.907Z,28.15
2023-05-24T10:30:28.912Z,28.03
2023-05-24T10:33:30.945Z,27.99
2023-05-24T10:36:35.901Z,27.97
2023-05-24T10:39:38.916Z,27.95
2023-05-24T10:42:39.946Z,27.96
2023-05-24T10:45:44.987Z,28.00
2023-05-24T10:48:45.929Z,27.95
2023-05-24T10:51:52.932Z,28.01
2023-05-24T10:57:56.961Z,27.86
2023-05-24T11:00:58.953Z,27.68
2023-05-24T11:03:59.962Z,27.48
2023-05-24T11:07:16.979Z,27.30
2023-05-24T11:10:23.987Z,27.25
2023-05-24T11:13:25.014Z,27.20
2023-05-24T11:16:50.016Z,27.14
2023-05-24T11:19:53.317Z,27.08
2023-05-24T11:22:56.000Z,27.11
2023-05-24T11:25:57.018Z,27.20
2023-05-24T11:29:04.043Z,27.20
2023-05-24T11:32:14.186Z,27.15
2023-05-24T11:35:18.045Z,27.26
2023-05-24T11:38:25.138Z,27.36
2023-05-24T11:41:19.101Z,27.45
2023-05-24T11:44:06.990Z,27.52
2023-05-24T11:47:20.050Z,27.66
2023-05-24T11:50:21.061Z,27.84
2023-05-24T11:53:29.065Z,28.03
2023-05-24T11:56:31.676Z,28.19
2023-05-24T11:59:44.154Z,28.17
2023-05-24T12:02:47.234Z,28.05
2023-05-24T12:05:48.116Z,27.80
2023-05-24T12:08:49.071Z,27.65
2023-05-24T12:12:00.181Z,27.55
2023-05-24T12:15:01.149Z,27.63
2023-05-24T12:18:02.245Z,27.71
2023-05-24T12:21:04.120Z,27.70
2023-05-24T12:24:05.109Z,27.61
2023-05-24T12:27:06.142Z,27.56
2023-05-24T12:30:07.132Z,27.52
2023-05-24T12:33:08.165Z,27.52
2023-05-24T12:36:09.128Z,27.55
2023-05-24T12:39:13.153Z,27.70
2023-05-24T12:42:15.137Z,27.83
2023-05-24T12:45:16.165Z,28.01
2023-05-24T12:48:17.183Z,28.07
2023-05-24T12:51:18.191Z,28.00
2023-05-24T12:54:19.183Z,27.98
2023-05-24T12:57:20.222Z,28.20
2023-05-24T13:00:15.419Z,28.36
2023-05-24T13:03:16.257Z,28.44
2023-05-24T13:06:17.213Z,28.42
2023-05-24T13:09:18.192Z,28.35
2023-05-24T13:12:19.222Z,28.18
2023-05-24T13:15:21.234Z,28.12
2023-05-24T13:18:22.224Z,27.75
2023-05-24T13:21:23.331Z,27.21
2023-05-24T13:24:24.278Z,27.31
2023-05-24T13:27:25.257Z,27.20
2023-05-24T13:30:34.275Z,27.16
2023-05-24T13:33:35.254Z,27.23
2023-05-24T13:36:36.277Z,27.21
2023-05-24T13:39:39.425Z,27.07
2023-05-24T13:42:40.343Z,26.87
2023-05-24T13:45:41.328Z,26.71
2023-05-24T13:48:42.329Z,26.51
2023-05-24T13:51:43.322Z,26.41
2023-05-24T13:54:45.286Z,26.14
2023-05-24T13:57:51.216Z,25.96
2023-05-24T14:00:53.302Z,25.96
2023-05-24T14:03:54.348Z,25.96
2023-05-24T14:06:55.344Z,25.86
2023-05-24T14:09:56.360Z,25.88
2023-05-24T14:13:15.046Z,25.96
2023-05-24T14:16:19.431Z,26.09
2023-05-24T14:19:20.388Z,26.23
2023-05-24T14:22:21.366Z,26.38
2023-05-24T14:25:23.372Z,26.43
2023-05-24T14:28:25.377Z,26.50
2023-05-24T14:31:26.398Z,26.56
2023-05-24T14:34:27.389Z,26.63
2023-05-24T14:37:28.370Z,26.77
2023-05-24T14:40:29.384Z,26.84
2023-05-24T14:43:30.414Z,26.80
2023-05-24T14:46:31.418Z,26.71
2023-05-24T14:49:32.415Z,26.65
2023-05-24T14:52:33.400Z,26.61
2023-05-24T14:55:34.457Z,26.54
2023-05-24T14:58:35.434Z,26.40
2023-05-24T15:01:36.527Z,26.25
2023-05-24T15:04:37.458Z,26.17
2023-05-24T15:07:38.462Z,26.11
2023-05-24T15:10:39.474Z,26.01
2023-05-24T15:13:40.469Z,25.73
2023-05-24T15:16:41.482Z,25.63
2023-05-24T15:19:42.541Z,25.66
2023-05-24T15:22:43.633Z,25.67
2023-05-24T15:25:44.484Z,25.66
2023-05-24T15:28:45.486Z,25.62
2023-05-24T15:35:40.572Z,25.50
2023-05-24T15:38:41.537Z,25.41
2023-05-24T15:41:44.573Z,25.25
2023-05-24T15:44:45.599Z,25.14
2023-05-24T15:47:46.650Z,24.92
2023-05-24T15:51:31.994Z,24.87
2023-05-24T15:54:08.576Z,24.85
2023-05-24T15:57:09.561Z,24.74
2023-05-24T16:00:10.776Z,24.64
2023-05-24T16:03:11.667Z,24.58
2023-05-24T16:06:12.627Z,24.54
2023-05-24T16:09:15.595Z,24.40
2023-05-24T16:12:16.587Z,24.26
2023-05-24T16:15:17.609Z,24.15
2023-05-24T16:18:18.586Z,23.97
2023-05-24T16:21:19.606Z,23.93
2023-05-24T16:24:24.645Z,23.81
2023-05-24T16:27:28.614Z,23.82
2023-05-24T16:30:29.656Z,23.83
2023-05-24T16:33:23.870Z,23.82
2023-05-24T16:36:25.640Z,23.79
2023-05-24T16:39:26.658Z,23.83
2023-05-24T16:42:20.671Z,23.84
2023-05-24T16:45:07.712Z,23.84
2023-05-24T16:48:08.743Z,23.90
2023-05-24T16:51:09.659Z,23.89
2023-05-24T16:54:10.685Z,23.83
2023-05-24T16:57:11.709Z,23.77
2023-05-24T17:00:12.701Z,23.72
2023-05-24T17:03:13.752Z,23.64
2023-05-24T17:06:14.686Z,23.47
2023-05-24T17:09:15.710Z,23.35
2023-05-24T17:12:16.764Z,23.21
2023-05-24T17:15:19.217Z,23.08
2023-05-24T17:18:19.771Z,22.97
2023-05-24T17:21:20.741Z,22.79
2023-05-24T17:24:21.730Z,22.60
2023-05-24T17:27:22.827Z,22.44
2023-05-24T17:30:23.738Z,22.31
2023-05-24T17:33:25.769Z,22.19
2023-05-24T17:36:26.769Z,22.02
2023-05-24T17:39:28.776Z,21.90
2023-05-24T17:42:29.766Z,21.80
2023-05-24T17:45:30.802Z,21.72
2023-05-24T17:48:31.810Z,21.62
2023-05-24T17:51:32.780Z,21.55
2023-05-24T17:54:33.786Z,21.46
2023-05-24T17:57:34.789Z,21.39
2023-05-24T18:00:35.791Z,21.31
2023-05-24T18:03:36.866Z,21.22
2023-05-24T18:06:30.823Z,21.15
2023-05-24T18:09:31.802Z,21.10
2023-05-24T18:12:32.831Z,21.04
2023-05-24T18:15:33.806Z,20.96
2023-05-24T18:18:34.832Z,20.89
2023-05-24T18:21:35.872Z,20.81
2023-05-24T18:24:36.884Z,20.73
2023-05-24T18:27:37.859Z,20.66
2023-05-24T18:30:38.860Z,20.58
2023-05-24T18:33:39.964Z,20.54
2023-05-24T18:36:40.964Z,20.49
2023-05-24T18:39:41.924Z,20.43
2023-05-24T18:42:42.849Z,20.35
2023-05-24T18:45:45.167Z,20.27
2023-05-24T18:48:45.901Z,20.19
2023-05-24T18:51:46.904Z,20.10
2023-05-24T18:54:47.980Z,20.04
2023-05-24T18:57:48.925Z,19.97
2023-05-24T19:01:22.934Z,19.88
2023-05-24T19:04:23.931Z,19.79
2023-05-24T19:07:24.994Z,19.69
2023-05-24T19:10:25.964Z,19.61
2023-05-24T19:13:26.933Z,19.54
2023-05-24T19:16:27.977Z,19.45
2023-05-24T19:19:28.912Z,19.38
2023-05-24T19:22:29.979Z,19.34
2023-05-24T19:25:30.998Z,19.30
2023-05-24T19:28:32.018Z,19.23
2023-05-24T19:31:33.026Z,19.18
2023-05-24T19:34:35.009Z,19.14
2023-05-24T19:37:37.002Z,19.09
2023-05-24T19:40:38.028Z,19.04
2023-05-24T19:43:39.025Z,18.98
2023-05-24T19:46:42.082Z,18.92
2023-05-24T19:49:43.024Z,18.86
2023-05-24T19:52:44.032Z,18.82
2023-05-24T19:55:45.304Z,18.77
2023-05-24T19:58:46.024Z,18.72
2023-05-24T20:01:47.090Z,18.65
2023-05-24T20:04:49.043Z,18.58
2023-05-24T20:07:50.064Z,18.51
2023-05-24T20:10:51.257Z,18.46
2023-05-24T20:13:52.070Z,18.40
2023-05-24T20:16:54.079Z,18.35
2023-05-24T20:19:55.090Z,18.30
2023-05-24T20:22:56.121Z,18.25
2023-05-24T20:25:57.151Z,18.22
2023-05-24T20:28:59.099Z,18.18
2023-05-24T20:32:00.206Z,18.17
2023-05-24T20:35:01.176Z,18.14
2023-05-24T20:38:02.136Z,18.12
2023-05-24T20:41:03.143Z,18.09
2023-05-24T20:44:04.130Z,18.06
2023-05-24T20:47:05.339Z,18.04
2023-05-24T20:50:06.136Z,18.04
2023-05-24T20:53:07.146Z,18.03
2023-05-24T20:56:09.180Z,18.00
2023-05-24T20:59:10.135Z,17.98
2023-05-24T21:02:11.193Z,17.98
2023-05-24T21:05:13.171Z,17.97
2023-05-24T21:08:14.173Z,17.94
2023-05-24T21:11:15.164Z,17.93
2023-05-24T21:14:16.169Z,17.91
2023-05-24T21:17:17.220Z,17.89
2023-05-24T21:20:18.247Z,17.88
2023-05-24T21:23:19.219Z,17.86
2023-05-24T21:26:20.211Z,17.86
2023-05-24T21:29:21.220Z,17.87
2023-05-24T21:32:24.279Z,17.86
2023-05-24T21:35:25.221Z,17.84
2023-05-24T21:38:28.189Z,17.81
2023-05-24T21:41:29.260Z,17.78
2023-05-24T21:44:30.205Z,17.75
2023-05-24T21:47:31.316Z,17.73
2023-05-24T21:50:32.249Z,17.68
2023-05-24T21:53:33.246Z,17.64
2023-05-24T21:56:35.276Z,17.58
2023-05-24T21:59:36.267Z,17.52
2023-05-24T22:02:38.400Z,17.44
2023-05-24T22:05:39.252Z,17.38
2023-05-24T22:08:41.313Z,17.36
2023-05-24T22:11:42.295Z,17.34
2023-05-24T22:14:43.312Z,17.35
2023-05-24T22:17:47.331Z,17.34
2023-05-24T22:20:48.312Z,17.35
2023-05-24T22:23:50.316Z,17.38
2023-05-24T22:26:53.370Z,17.41
2023-05-24T22:29:54.339Z,17.41
2023-05-24T22:32:56.357Z,17.41
2023-05-24T22:35:58.378Z,17.41
2023-05-24T22:38:59.355Z,17.40
2023-05-24T22:42:00.336Z,17.39
2023-05-24T22:45:01.387Z,17.38
2023-05-24T22:48:05.554Z,17.36
2023-05-24T22:53:45.072Z,17.36
2023-05-24T22:56:44.982Z,17.37
2023-05-24T22:59:45.017Z,17.38
2023-05-24T23:02:45.048Z,17.37
2023-05-24T23:05:48.031Z,17.36
2023-05-24T23:08:48.011Z,17.34
2023-05-24T23:11:49.034Z,17.30
2023-05-24T23:14:52.023Z,17.28
2023-05-24T23:17:53.059Z,17.26
2023-05-24T23:20:53.050Z,17.25
2023-05-24T23:23:53.090Z,17.24
2023-05-24T23:26:57.112Z,17.23
2023-05-24T23:29:57.061Z,17.22
2023-05-24T23:32:58.084Z,17.21
2023-05-24T23:35:58.060Z,17.21
2023-05-24T23:38:58.085Z,17.21
2023-05-24T23:41:58.076Z,17.22
2023-05-24T23:44:58.101Z,17.23
2023-05-24T23:47:59.249Z,17.20
2023-05-24T23:50:59.126Z,17.20
2023-05-24T23:53:59.105Z,17.18
2023-05-24T23:57:00.152Z,17.13
